sensor_id;sensor_type;location;lat;lon;timestamp;pressure;altitude;pressure_sealevel;temperature;humidity
21879;BME280;27908;42.708;23.278;2022-11-20T00:01:40;25597.03;;;18.68;70.74
21879;BME280;27908;42.708;23.278;2022-11-20T00:04:06;25243.13;;;18.72;71.02
21879;BME280;27908;42.708;23.278;2022-11-20T00:06:32;25808.22;;;18.78;71.76
21879;BME280;27908;42.708;23.278;2022-11-20T00:08:59;26239.72;;;18.76;71.69
21879;BME280;27908;42.708;23.278;2022-11-20T00:11:26;26224.16;;;18.76;72.33
21879;BME280;27908;42.708;23.278;2022-11-20T00:13:54;26225.09;;;18.72;73.03
21879;BME280;27908;42.708;23.278;2022-11-20T00:16:22;26945.66;;;18.64;72.79
21879;BME280;27908;42.708;23.278;2022-11-20T00:18:48;27449.66;;;18.64;72.33
21879;BME280;27908;42.708;23.278;2022-11-20T00:21:19;27606.97;;;18.61;72.94
21879;BME280;27908;42.708;23.278;2022-11-20T00:23:45;28120.44;;;18.76;71.07
21879;BME280;27908;42.708;23.278;2022-11-20T00:26:13;28470.06;;;18.68;71.49
21879;BME280;27908;42.708;23.278;2022-11-20T00:28:40;28931.59;;;18.76;70.47
21879;BME280;27908;42.708;23.278;2022-11-20T00:31:14;29192.50;;;18.75;70.21
21879;BME280;27908;42.708;23.278;2022-11-20T00:33:41;29773.69;;;18.81;69.57
21879;BME280;27908;42.708;23.278;2022-11-20T00:36:09;29532.53;;;18.85;70.14
21879;BME280;27908;42.708;23.278;2022-11-20T00:38:34;29332.09;;;18.94;70.08
21879;BME280;27908;42.708;23.278;2022-11-20T00:41:06;29530.91;;;18.82;70.91
21879;BME280;27908;42.708;23.278;2022-11-20T00:43:32;29506.47;;;18.73;72.32
21879;BME280;27908;42.708;23.278;2022-11-20T00:45:59;29593.03;;;18.61;73.01
21879;BME280;27908;42.708;23.278;2022-11-20T00:48:25;30030.09;;;18.65;72.34
21879;BME280;27908;42.708;23.278;2022-11-20T00:50:51;29621.44;;;18.67;73.39
21879;BME280;27908;42.708;23.278;2022-11-20T00:53:17;29783.19;;;18.68;72.75
21879;BME280;27908;42.708;23.278;2022-11-20T00:55:42;29714.06;;;18.68;73.45
21879;BME280;27908;42.708;23.278;2022-11-20T00:58:07;30066.34;;;18.55;73.71
21879;BME280;27908;42.708;23.278;2022-11-20T01:00:33;29918.34;;;18.56;74.07
21879;BME280;27908;42.708;23.278;2022-11-20T01:02:58;30078.28;;;18.64;73.60
21879;BME280;27908;42.708;23.278;2022-11-20T01:05:23;30252.78;;;18.60;73.86
21879;BME280;27908;42.708;23.278;2022-11-20T01:07:49;30068.47;;;18.60;74.37
21879;BME280;27908;42.708;23.278;2022-11-20T01:10:14;30230.63;;;18.56;74.62
21879;BME280;27908;42.708;23.278;2022-11-20T01:12:40;30206.28;;;18.43;75.37
21879;BME280;27908;42.708;23.278;2022-11-20T01:15:05;30486.06;;;18.50;74.86
21879;BME280;27908;42.708;23.278;2022-11-20T01:17:31;30482.78;;;18.49;75.49
21879;BME280;27908;42.708;23.278;2022-11-20T01:19:57;30828.88;;;18.50;74.09
21879;BME280;27908;42.708;23.278;2022-11-20T01:22:22;31150.22;;;18.47;74.01
21879;BME280;27908;42.708;23.278;2022-11-20T01:24:48;30955.03;;;18.51;74.19
21879;BME280;27908;42.708;23.278;2022-11-20T01:27:13;31596.44;;;18.49;72.88
21879;BME280;27908;42.708;23.278;2022-11-20T01:29:38;31387.50;;;18.51;73.13
21879;BME280;27908;42.708;23.278;2022-11-20T01:32:04;31495.84;;;18.47;74.13
21879;BME280;27908;42.708;23.278;2022-11-20T01:34:29;31522.38;;;18.54;73.30
21879;BME280;27908;42.708;23.278;2022-11-20T01:36:55;32361.84;;;18.63;70.59
21879;BME280;27908;42.708;23.278;2022-11-20T01:39:25;31973.63;;;18.50;72.33
21879;BME280;27908;42.708;23.278;2022-11-20T01:41:52;32527.59;;;18.66;70.60
21879;BME280;27908;42.708;23.278;2022-11-20T01:44:55;32764.03;;;18.58;70.12
21879;BME280;27908;42.708;23.278;2022-11-20T01:50:03;32826.94;;;18.80;69.22
21879;BME280;27908;42.708;23.278;2022-11-20T01:52:37;32747.44;;;18.70;70.71
21879;BME280;27908;42.708;23.278;2022-11-20T01:55:10;33039.28;;;18.70;70.42
21879;BME280;27908;42.708;23.278;2022-11-20T01:57:38;32744.63;;;18.70;71.35
21879;BME280;27908;42.708;23.278;2022-11-20T02:00:13;32790.75;;;18.70;71.54
21879;BME280;27908;42.708;23.278;2022-11-20T02:02:41;32754.81;;;18.60;72.99
21879;BME280;27908;42.708;23.278;2022-11-20T02:05:27;33181.91;;;18.63;70.98
21879;BME280;27908;42.708;23.278;2022-11-20T02:07:55;32732.00;;;18.60;73.49
21879;BME280;27908;42.708;23.278;2022-11-20T02:10:23;33214.84;;;18.53;72.61
21879;BME280;27908;42.708;23.278;2022-11-20T02:12:48;33383.94;;;18.39;73.83
21879;BME280;27908;42.708;23.278;2022-11-20T02:15:33;33637.72;;;18.25;73.72
21879;BME280;27908;42.708;23.278;2022-11-20T02:17:59;33499.81;;;18.30;74.51
21879;BME280;27908;42.708;23.278;2022-11-20T02:20:25;33830.22;;;18.21;74.51
21879;BME280;27908;42.708;23.278;2022-11-20T02:22:56;33814.44;;;18.25;74.17
21879;BME280;27908;42.708;23.278;2022-11-20T02:25:24;33894.63;;;18.26;73.90
21879;BME280;27908;42.708;23.278;2022-11-20T02:27:51;34014.59;;;18.21;74.31
21879;BME280;27908;42.708;23.278;2022-11-20T02:30:17;34226.88;;;18.20;74.16
21879;BME280;27908;42.708;23.278;2022-11-20T02:32:42;34447.91;;;18.13;74.08
21879;BME280;27908;42.708;23.278;2022-11-20T02:37:56;34250.94;;;18.04;75.20
21879;BME280;27908;42.708;23.278;2022-11-20T02:40:22;34167.53;;;18.06;75.16
21879;BME280;27908;42.708;23.278;2022-11-20T02:42:47;34201.78;;;18.12;75.55
21879;BME280;27908;42.708;23.278;2022-11-20T02:45:13;34060.03;;;18.15;75.97
21879;BME280;27908;42.708;23.278;2022-11-20T02:47:39;34054.63;;;18.05;76.29
21879;BME280;27908;42.708;23.278;2022-11-20T02:50:05;33796.28;;;18.15;76.77
21879;BME280;27908;42.708;23.278;2022-11-20T02:52:30;33707.00;;;17.97;77.90
21879;BME280;27908;42.708;23.278;2022-11-20T02:54:56;33656.88;;;17.99;78.72
21879;BME280;27908;42.708;23.278;2022-11-20T02:57:21;33783.31;;;17.86;79.74
21879;BME280;27908;42.708;23.278;2022-11-20T02:59:47;33833.44;;;17.84;80.24
21879;BME280;27908;42.708;23.278;2022-11-20T03:02:12;33484.94;;;17.88;80.66
21879;BME280;27908;42.708;23.278;2022-11-20T03:04:38;33492.09;;;17.87;80.70
21879;BME280;27908;42.708;23.278;2022-11-20T03:07:04;33434.47;;;17.85;81.05
21879;BME280;27908;42.708;23.278;2022-11-20T03:09:29;33208.88;;;17.75;81.94
21879;BME280;27908;42.708;23.278;2022-11-20T03:11:54;33299.09;;;17.85;81.64
21879;BME280;27908;42.708;23.278;2022-11-20T03:14:20;33298.09;;;17.88;81.14
21879;BME280;27908;42.708;23.278;2022-11-20T03:16:45;33270.75;;;17.90;81.32
21879;BME280;27908;42.708;23.278;2022-11-20T03:19:11;33355.94;;;17.72;81.90
21879;BME280;27908;42.708;23.278;2022-11-20T03:21:37;33396.34;;;17.71;81.72
21879;BME280;27908;42.708;23.278;2022-11-20T03:24:03;33416.19;;;17.80;82.15
21879;BME280;27908;42.708;23.278;2022-11-20T03:26:29;33527.59;;;17.58;83.23
21879;BME280;27908;42.708;23.278;2022-11-20T03:28:59;33523.88;;;17.51;83.85
21879;BME280;27908;42.708;23.278;2022-11-20T03:31:29;33715.28;;;17.55;84.04
21879;BME280;27908;42.708;23.278;2022-11-20T03:33:56;33674.09;;;17.55;84.11
21879;BME280;27908;42.708;23.278;2022-11-20T03:36:21;33959.91;;;17.49;82.24
21879;BME280;27908;42.708;23.278;2022-11-20T03:38:48;33646.66;;;17.75;81.91
21879;BME280;27908;42.708;23.278;2022-11-20T03:41:19;33741.22;;;17.70;82.50
21879;BME280;27908;42.708;23.278;2022-11-20T03:43:49;33742.78;;;17.49;83.64
21879;BME280;27908;42.708;23.278;2022-11-20T03:46:14;33847.66;;;17.40;84.08
21879;BME280;27908;42.708;23.278;2022-11-20T03:48:40;33969.47;;;17.52;83.83
21879;BME280;27908;42.708;23.278;2022-11-20T03:51:19;33821.53;;;17.48;84.84
21879;BME280;27908;42.708;23.278;2022-11-20T03:53:46;34251.06;;;17.34;84.09
21879;BME280;27908;42.708;23.278;2022-11-20T03:56:13;34167.19;;;17.35;85.38
21879;BME280;27908;42.708;23.278;2022-11-20T03:58:40;34267.50;;;17.36;84.84
21879;BME280;27908;42.708;23.278;2022-11-20T04:03:37;34377.94;;;17.28;85.53
21879;BME280;27908;42.708;23.278;2022-11-20T04:06:08;34619.34;;;17.20;85.40
21879;BME280;27908;42.708;23.278;2022-11-20T04:08:34;34639.97;;;17.25;84.94
21879;BME280;27908;42.708;23.278;2022-11-20T04:11:16;34788.50;;;17.30;84.17
21879;BME280;27908;42.708;23.278;2022-11-20T04:13:45;34826.41;;;17.25;84.50
21879;BME280;27908;42.708;23.278;2022-11-20T04:16:11;34788.31;;;17.25;84.44
21879;BME280;27908;42.708;23.278;2022-11-20T04:18:37;34958.56;;;17.23;84.09
21879;BME280;27908;42.708;23.278;2022-11-20T04:21:03;35125.16;;;17.15;84.09
21879;BME280;27908;42.708;23.278;2022-11-20T04:23:29;34924.25;;;17.17;84.88
21879;BME280;27908;42.708;23.278;2022-11-20T04:25:55;34960.00;;;17.21;84.88
21879;BME280;27908;42.708;23.278;2022-11-20T04:28:25;35265.50;;;17.19;83.76
21879;BME280;27908;42.708;23.278;2022-11-20T04:30:50;35181.56;;;17.29;82.38
21879;BME280;27908;42.708;23.278;2022-11-20T04:33:16;35178.00;;;17.45;81.83
21879;BME280;27908;42.708;23.278;2022-11-20T04:35:41;35123.72;;;17.44;81.47
21879;BME280;27908;42.708;23.278;2022-11-20T04:38:07;35185.94;;;17.45;81.72
21879;BME280;27908;42.708;23.278;2022-11-20T04:40:32;35348.53;;;17.48;80.64
21879;BME280;27908;42.708;23.278;2022-11-20T04:42:58;35108.25;;;17.53;81.29
21879;BME280;27908;42.708;23.278;2022-11-20T04:45:23;35069.97;;;17.44;82.12
21879;BME280;27908;42.708;23.278;2022-11-20T04:47:49;35249.63;;;17.45;81.47
21879;BME280;27908;42.708;23.278;2022-11-20T04:50:14;35332.06;;;17.46;81.86
21879;BME280;27908;42.708;23.278;2022-11-20T04:52:40;35402.91;;;17.36;82.29
21879;BME280;27908;42.708;23.278;2022-11-20T04:55:06;35668.97;;;17.49;80.75
21879;BME280;27908;42.708;23.278;2022-11-20T04:57:31;35537.34;;;17.43;81.38
21879;BME280;27908;42.708;23.278;2022-11-20T04:59:57;35343.44;;;17.44;82.26
21879;BME280;27908;42.708;23.278;2022-11-20T05:02:22;35476.81;;;17.40;82.41
21879;BME280;27908;42.708;23.278;2022-11-20T05:04:48;35366.59;;;17.30;83.00
21879;BME280;27908;42.708;23.278;2022-11-20T05:07:13;35530.00;;;17.34;83.14
21879;BME280;27908;42.708;23.278;2022-11-20T05:09:38;35659.34;;;17.23;82.36
21879;BME280;27908;42.708;23.278;2022-11-20T05:12:04;35614.97;;;17.44;81.33
21879;BME280;27908;42.708;23.278;2022-11-20T05:14:29;35656.47;;;17.45;81.21
21879;BME280;27908;42.708;23.278;2022-11-20T05:16:55;35740.34;;;17.35;82.28
21879;BME280;27908;42.708;23.278;2022-11-20T05:19:20;36039.13;;;17.34;81.57
21879;BME280;27908;42.708;23.278;2022-11-20T05:21:46;36217.72;;;17.42;79.76
21879;BME280;27908;42.708;23.278;2022-11-20T05:24:11;36435.00;;;17.46;78.72
21879;BME280;27908;42.708;23.278;2022-11-20T05:26:36;36474.63;;;17.57;77.46
21879;BME280;27908;42.708;23.278;2022-11-20T05:29:02;36232.31;;;17.58;77.99
21879;BME280;27908;42.708;23.278;2022-11-20T05:31:27;35930.28;;;17.58;79.56
21879;BME280;27908;42.708;23.278;2022-11-20T05:33:53;36500.66;;;17.45;79.05
21879;BME280;27908;42.708;23.278;2022-11-20T05:36:19;36324.94;;;17.46;79.76
21879;BME280;27908;42.708;23.278;2022-11-20T05:38:45;36344.81;;;17.41;80.38
21879;BME280;27908;42.708;23.278;2022-11-20T05:41:12;36014.19;;;17.62;78.62
21879;BME280;27908;42.708;23.278;2022-11-20T05:43:40;35751.69;;;17.55;80.79
21879;BME280;27908;42.708;23.278;2022-11-20T05:46:07;35655.88;;;17.48;81.96
21879;BME280;27908;42.708;23.278;2022-11-20T05:48:34;35567.47;;;17.42;82.74
21879;BME280;27908;42.708;23.278;2022-11-20T05:51:01;35724.13;;;17.43;81.90
21879;BME280;27908;42.708;23.278;2022-11-20T05:53:27;35735.78;;;17.45;82.24
21879;BME280;27908;42.708;23.278;2022-11-20T05:56:13;35364.78;;;17.41;83.74
21879;BME280;27908;42.708;23.278;2022-11-20T05:58:39;36026.00;;;17.25;82.14
21879;BME280;27908;42.708;23.278;2022-11-20T06:01:10;35971.16;;;17.27;83.30
21879;BME280;27908;42.708;23.278;2022-11-20T06:03:37;35594.25;;;17.30;84.58
21879;BME280;27908;42.708;23.278;2022-11-20T06:06:04;35561.91;;;17.18;84.26
21879;BME280;27908;42.708;23.278;2022-11-20T06:08:30;35681.50;;;17.31;84.30
21879;BME280;27908;42.708;23.278;2022-11-20T06:10:55;35590.56;;;17.28;84.85
21879;BME280;27908;42.708;23.278;2022-11-20T06:13:21;35317.69;;;17.30;85.73
21879;BME280;27908;42.708;23.278;2022-11-20T06:15:53;35356.38;;;17.26;85.93
21879;BME280;27908;42.708;23.278;2022-11-20T06:18:19;35149.28;;;17.17;86.39
21879;BME280;27908;42.708;23.278;2022-11-20T06:20:45;35283.03;;;17.27;85.33
21879;BME280;27908;42.708;23.278;2022-11-20T06:23:11;35449.81;;;17.37;84.01
21879;BME280;27908;42.708;23.278;2022-11-20T06:25:38;34968.19;;;17.45;85.27
21879;BME280;27908;42.708;23.278;2022-11-20T06:28:04;34740.59;;;17.41;86.12
21879;BME280;27908;42.708;23.278;2022-11-20T06:30:29;34628.88;;;17.42;85.85
21879;BME280;27908;42.708;23.278;2022-11-20T06:32:54;35126.75;;;17.49;83.73
21879;BME280;27908;42.708;23.278;2022-11-20T06:35:20;34767.31;;;17.56;84.25
21879;BME280;27908;42.708;23.278;2022-11-20T06:37:45;34953.00;;;17.54;83.87
21879;BME280;27908;42.708;23.278;2022-11-20T06:40:11;35120.16;;;17.56;83.58
21879;BME280;27908;42.708;23.278;2022-11-20T06:42:36;34982.72;;;17.44;83.04
21879;BME280;27908;42.708;23.278;2022-11-20T06:45:02;35083.44;;;17.59;82.11
21879;BME280;27908;42.708;23.278;2022-11-20T06:47:27;34703.56;;;17.75;82.28
21879;BME280;27908;42.708;23.278;2022-11-20T06:49:53;34351.91;;;17.82;82.90
21879;BME280;27908;42.708;23.278;2022-11-20T06:52:18;34361.97;;;17.78;83.19
21879;BME280;27908;42.708;23.278;2022-11-20T06:54:44;34112.09;;;17.75;84.02
21879;BME280;27908;42.708;23.278;2022-11-20T06:57:09;33550.44;;;18.01;83.69
21879;BME280;27908;42.708;23.278;2022-11-20T06:59:35;33169.19;;;18.11;84.11
21879;BME280;27908;42.708;23.278;2022-11-20T07:02:00;33877.41;;;18.04;82.49
21879;BME280;27908;42.708;23.278;2022-11-20T07:04:25;33775.81;;;18.06;82.82
21879;BME280;27908;42.708;23.278;2022-11-20T07:06:51;34001.78;;;18.02;82.64
21879;BME280;27908;42.708;23.278;2022-11-20T07:09:16;33703.59;;;18.05;83.54
21879;BME280;27908;42.708;23.278;2022-11-20T07:11:41;34107.69;;;17.90;83.87
21879;BME280;27908;42.708;23.278;2022-11-20T07:14:07;34265.66;;;17.75;84.91
21879;BME280;27908;42.708;23.278;2022-11-20T07:16:32;34090.44;;;17.86;84.05
21879;BME280;27908;42.708;23.278;2022-11-20T07:18:58;34691.97;;;17.73;83.53
21879;BME280;27908;42.708;23.278;2022-11-20T07:21:23;35386.44;;;17.74;81.50
21879;BME280;27908;42.708;23.278;2022-11-20T07:23:48;34731.63;;;17.80;83.17
21879;BME280;27908;42.708;23.278;2022-11-20T07:26:14;34630.91;;;17.69;83.12
21879;BME280;27908;42.708;23.278;2022-11-20T07:28:40;34756.59;;;17.83;82.68
21879;BME280;27908;42.708;23.278;2022-11-20T07:31:05;34850.09;;;17.72;82.36
21879;BME280;27908;42.708;23.278;2022-11-20T07:33:34;34854.50;;;17.80;83.14
21879;BME280;27908;42.708;23.278;2022-11-20T07:35:59;35268.94;;;17.79;81.47
21879;BME280;27908;42.708;23.278;2022-11-20T07:38:25;35202.41;;;17.75;81.68
21879;BME280;27908;42.708;23.278;2022-11-20T07:40:55;35024.22;;;17.85;81.84
21879;BME280;27908;42.708;23.278;2022-11-20T07:43:21;35255.16;;;17.91;80.15
21879;BME280;27908;42.708;23.278;2022-11-20T07:45:46;35468.31;;;17.83;80.71
21879;BME280;27908;42.708;23.278;2022-11-20T07:48:11;35259.19;;;17.84;81.62
21879;BME280;27908;42.708;23.278;2022-11-20T07:50:37;34925.91;;;17.79;83.33
21879;BME280;27908;42.708;23.278;2022-11-20T07:53:03;35320.75;;;17.71;81.73
21879;BME280;27908;42.708;23.278;2022-11-20T07:55:29;35100.97;;;17.90;81.41
21879;BME280;27908;42.708;23.278;2022-11-20T07:57:55;35120.28;;;17.92;81.38
21879;BME280;27908;42.708;23.278;2022-11-20T08:00:22;35017.19;;;18.00;80.65
21879;BME280;27908;42.708;23.278;2022-11-20T08:02:47;35026.44;;;18.12;79.26
21879;BME280;27908;42.708;23.278;2022-11-20T08:05:13;34805.25;;;18.15;80.27
21879;BME280;27908;42.708;23.278;2022-11-20T08:07:39;34280.03;;;18.24;80.90
21879;BME280;27908;42.708;23.278;2022-11-20T08:10:07;34628.09;;;18.23;80.07
21879;BME280;27908;42.708;23.278;2022-11-20T08:12:33;35250.84;;;18.24;78.17
21879;BME280;27908;42.708;23.278;2022-11-20T08:15:16;35287.72;;;18.08;78.52
21879;BME280;27908;42.708;23.278;2022-11-20T08:17:42;35232.13;;;18.18;78.94
21879;BME280;27908;42.708;23.278;2022-11-20T08:20:08;34720.75;;;18.29;79.51
21879;BME280;27908;42.708;23.278;2022-11-20T08:22:33;34022.16;;;18.35;81.40
21879;BME280;27908;42.708;23.278;2022-11-20T08:24:59;34836.16;;;18.38;78.01
21879;BME280;27908;42.708;23.278;2022-11-20T08:27:24;35174.44;;;18.34;77.56
21879;BME280;27908;42.708;23.278;2022-11-20T08:29:50;34602.47;;;18.23;79.20
21879;BME280;27908;42.708;23.278;2022-11-20T08:32:15;34613.16;;;18.43;78.64
21879;BME280;27908;42.708;23.278;2022-11-20T08:34:40;34577.22;;;18.33;80.27
21879;BME280;27908;42.708;23.278;2022-11-20T08:37:06;34201.94;;;18.17;82.99
21879;BME280;27908;42.708;23.278;2022-11-20T08:39:31;33840.91;;;18.08;85.40
21879;BME280;27908;42.708;23.278;2022-11-20T08:41:56;32977.41;;;18.06;88.13
21879;BME280;27908;42.708;23.278;2022-11-20T08:44:22;33907.06;;;18.02;85.38
21879;BME280;27908;42.708;23.278;2022-11-20T08:46:47;34327.53;;;18.13;82.84
21879;BME280;27908;42.708;23.278;2022-11-20T08:49:14;33306.81;;;18.05;87.80
21879;BME280;27908;42.708;23.278;2022-11-20T08:51:40;31438.91;;;17.85;94.96
21879;BME280;27908;42.708;23.278;2022-11-20T08:54:06;30396.72;;;17.45;100.00
21879;BME280;27908;42.708;23.278;2022-11-20T08:56:32;30561.09;;;17.26;100.00
21879;BME280;27908;42.708;23.278;2022-11-20T08:58:58;29350.59;;;16.94;100.00
21879;BME280;27908;42.708;23.278;2022-11-20T09:01:27;27784.44;;;16.90;100.00
21879;BME280;27908;42.708;23.278;2022-11-20T09:03:55;27757.16;;;16.69;100.00
21879;BME280;27908;42.708;23.278;2022-11-20T09:06:21;28399.41;;;16.45;100.00
21879;BME280;27908;42.708;23.278;2022-11-20T09:08:47;27506.06;;;16.32;100.00
21879;BME280;27908;42.708;23.278;2022-11-20T09:11:16;27052.41;;;16.32;100.00
21879;BME280;27908;42.708;23.278;2022-11-20T09:13:41;26833.69;;;16.27;100.00
21879;BME280;27908;42.708;23.278;2022-11-20T09:16:08;27065.97;;;16.10;100.00
21879;BME280;27908;42.708;23.278;2022-11-20T09:18:35;26681.59;;;15.93;100.00
21879;BME280;27908;42.708;23.278;2022-11-20T09:21:12;26184.44;;;15.73;100.00
21879;BME280;27908;42.708;23.278;2022-11-20T09:23:39;25023.28;;;15.52;100.00
21879;BME280;27908;42.708;23.278;2022-11-20T09:26:06;23154.94;;;15.48;100.00
21879;BME280;27908;42.708;23.278;2022-11-20T09:28:33;20882.13;;;15.38;100.00
21879;BME280;27908;42.708;23.278;2022-11-20T09:30:59;19191.84;;;15.34;100.00
21879;BME280;27908;42.708;23.278;2022-11-20T09:33:25;19583.06;;;15.35;100.00
21879;BME280;27908;42.708;23.278;2022-11-20T09:35:50;19187.38;;;15.20;100.00
21879;BME280;27908;42.708;23.278;2022-11-20T09:38:16;16918.47;;;15.39;100.00
21879;BME280;27908;42.708;23.278;2022-11-20T09:40:50;15297.81;;;15.53;100.00
21879;BME280;27908;42.708;23.278;2022-11-20T09:46:06;14327.91;;;15.72;100.00
21879;BME280;27908;42.708;23.278;2022-11-20T09:48:36;14329.78;;;15.81;100.00
21879;BME280;27908;42.708;23.278;2022-11-20T09:54:05;12061.28;;;16.07;100.00
21879;BME280;27908;42.708;23.278;2022-11-20T09:56:38;12713.19;;;16.19;100.00
21879;BME280;27908;42.708;23.278;2022-11-20T09:59:06;14015.06;;;16.28;100.00
21879;BME280;27908;42.708;23.278;2022-11-20T10:01:35;12723.31;;;16.71;100.00
21879;BME280;27908;42.708;23.278;2022-11-20T10:06:34;11438.78;;;17.63;100.00
21879;BME280;27908;42.708;23.278;2022-11-20T10:19:52;14706.69;;;18.09;100.00
21879;BME280;27908;42.708;23.278;2022-11-20T10:22:42;15682.03;;;17.96;100.00
21879;BME280;27908;42.708;23.278;2022-11-20T10:25:17;15358.13;;;18.06;100.00
21879;BME280;27908;42.708;23.278;2022-11-20T10:28:06;16008.03;;;17.96;100.00
21879;BME280;27908;42.708;23.278;2022-11-20T10:30:41;16662.34;;;18.03;100.00
21879;BME280;27908;42.708;23.278;2022-11-20T10:33:18;17957.00;;;17.66;100.00
21879;BME280;27908;42.708;23.278;2022-11-20T10:35:52;20059.59;;;17.65;99.25
21879;BME280;27908;42.708;23.278;2022-11-20T10:38:26;17302.06;;;17.56;100.00
21879;BME280;27908;42.708;23.278;2022-11-20T10:41:01;18262.50;;;16.94;100.00
21879;BME280;27908;42.708;23.278;2022-11-20T10:43:48;17602.66;;;16.64;100.00
21879;BME280;27908;42.708;23.278;2022-11-20T10:46:19;17269.47;;;16.36;100.00
21879;BME280;27908;42.708;23.278;2022-11-20T10:48:47;17260.53;;;16.02;100.00
21879;BME280;27908;42.708;23.278;2022-11-20T10:53:51;16922.41;;;15.54;100.00
21879;BME280;27908;42.708;23.278;2022-11-20T10:56:24;16269.19;;;15.40;100.00
21879;BME280;27908;42.708;23.278;2022-11-20T11:01:24;17878.38;;;14.86;100.00
21879;BME280;27908;42.708;23.278;2022-11-20T11:03:52;18517.56;;;14.51;100.00
21879;BME280;27908;42.708;23.278;2022-11-20T11:06:40;18184.16;;;14.20;100.00
21879;BME280;27908;42.708;23.278;2022-11-20T11:09:17;15261.13;;;13.98;100.00
21879;BME280;27908;42.708;23.278;2022-11-20T11:11:44;17518.34;;;13.57;100.00
21879;BME280;27908;42.708;23.278;2022-11-20T11:14:12;18804.84;;;13.25;100.00
21879;BME280;27908;42.708;23.278;2022-11-20T11:16:57;17832.38;;;13.22;100.00
21879;BME280;27908;42.708;23.278;2022-11-20T11:19:23;17180.50;;;13.06;100.00
21879;BME280;27908;42.708;23.278;2022-11-20T11:21:51;16856.59;;;13.05;100.00
21879;BME280;27908;42.708;23.278;2022-11-20T11:24:25;16530.84;;;12.96;100.00
21879;BME280;27908;42.708;23.278;2022-11-20T11:27:02;16849.84;;;12.79;100.00
21879;BME280;27908;42.708;23.278;2022-11-20T11:29:32;17173.47;;;12.80;100.00
21879;BME280;27908;42.708;23.278;2022-11-20T11:32:06;17177.69;;;12.95;100.00
21879;BME280;27908;42.708;23.278;2022-11-20T11:34:32;16529.81;;;12.92;100.00
21879;BME280;27908;42.708;23.278;2022-11-20T11:36:59;16855.16;;;12.99;100.00
21879;BME280;27908;42.708;23.278;2022-11-20T11:39:27;17179.69;;;13.03;100.00
21879;BME280;27908;42.708;23.278;2022-11-20T11:41:54;16532.63;;;13.03;100.00
21879;BME280;27908;42.708;23.278;2022-11-20T11:44:21;16531.09;;;12.97;100.00
21879;BME280;27908;42.708;23.278;2022-11-20T11:47:21;19128.44;;;13.24;100.00
21879;BME280;27908;42.708;23.278;2022-11-20T11:49:48;20101.06;;;13.27;100.00
21879;BME280;27908;42.708;23.278;2022-11-20T11:52:17;19782.16;;;13.43;100.00
21879;BME280;27908;42.708;23.278;2022-11-20T11:54:56;21093.94;;;13.44;100.00
21879;BME280;27908;42.708;23.278;2022-11-20T11:57:29;20145.63;;;13.40;100.00
21879;BME280;27908;42.708;23.278;2022-11-20T12:00:10;19781.38;;;13.41;100.00
21879;BME280;27908;42.708;23.278;2022-11-20T12:05:29;20100.44;;;13.25;100.00
21879;BME280;27908;42.708;23.278;2022-11-20T12:10:54;19780.91;;;13.39;100.00
21879;BME280;27908;42.708;23.278;2022-11-20T12:15:59;20847.22;;;13.48;100.00
21879;BME280;27908;42.708;23.278;2022-11-20T12:18:27;20785.00;;;13.44;100.00
21879;BME280;27908;42.708;23.278;2022-11-20T12:29:35;21075.31;;;13.33;100.00
21879;BME280;27908;42.708;23.278;2022-11-20T12:40:24;20918.97;;;13.35;100.00
21879;BME280;27908;42.708;23.278;2022-11-20T12:46:08;19452.97;;;13.26;100.00
21879;BME280;27908;42.708;23.278;2022-11-20T12:48:42;18803.25;;;13.20;100.00
21879;BME280;27908;42.708;23.278;2022-11-20T12:56:50;18480.84;;;13.25;100.00
21879;BME280;27908;42.708;23.278;2022-11-20T13:07:14;17512.53;;;13.36;100.00
21879;BME280;27908;42.708;23.278;2022-11-20T13:09:46;17187.13;;;13.30;100.00
21879;BME280;27908;42.708;23.278;2022-11-20T13:17:59;17509.41;;;13.25;100.00
21879;BME280;27908;42.708;23.278;2022-11-20T13:20:26;17510.09;;;13.27;100.00
21879;BME280;27908;42.708;23.278;2022-11-20T13:22:54;17828.78;;;13.09;100.00
21879;BME280;27908;42.708;23.278;2022-11-20T13:27:48;17833.06;;;13.24;100.00
21879;BME280;27908;42.708;23.278;2022-11-20T13:30:15;18807.78;;;13.35;100.00
21879;BME280;27908;42.708;23.278;2022-11-20T13:32:55;18812.44;;;13.51;100.00
21879;BME280;27908;42.708;23.278;2022-11-20T13:38:07;18813.16;;;13.53;100.00
21879;BME280;27908;42.708;23.278;2022-11-20T13:40:36;18810.97;;;13.46;100.00
21879;BME280;27908;42.708;23.278;2022-11-20T13:43:17;18815.38;;;13.61;100.00
21879;BME280;27908;42.708;23.278;2022-11-20T13:45:54;18168.69;;;13.66;100.00
21879;BME280;27908;42.708;23.278;2022-11-20T13:48:22;18492.31;;;13.64;100.00
21879;BME280;27908;42.708;23.278;2022-11-20T13:54:05;17845.91;;;13.70;100.00
21879;BME280;27908;42.708;23.278;2022-11-20T14:02:16;17521.75;;;13.70;100.00
21879;BME280;27908;42.708;23.278;2022-11-20T14:04:45;17844.25;;;13.64;100.00
21879;BME280;27908;42.708;23.278;2022-11-20T14:07:12;18489.59;;;13.55;100.00
21879;BME280;27908;42.708;23.278;2022-11-20T14:09:37;18169.94;;;13.70;100.00
21879;BME280;27908;42.708;23.278;2022-11-20T14:12:12;18171.34;;;13.75;100.00
21879;BME280;27908;42.708;23.278;2022-11-20T14:14:48;17525.78;;;13.85;100.00
21879;BME280;27908;42.708;23.278;2022-11-20T14:17:21;16879.88;;;13.93;100.00
21879;BME280;27908;42.708;23.278;2022-11-20T14:19:49;17202.66;;;13.88;100.00
21879;BME280;27908;42.708;23.278;2022-11-20T14:24:49;17202.91;;;13.89;100.00
21879;BME280;27908;42.708;23.278;2022-11-20T14:27:26;17526.22;;;13.86;100.00
21879;BME280;27908;42.708;23.278;2022-11-20T14:29:51;18497.19;;;13.81;100.00